Time,TemperatureF,DewpointF,PressureIn,WindDirection,WindDirectionDegrees,WindSpeedMPH,WindSpeedGustMPH,Humidity,HourlyPrecipIn,Conditions,Clouds,dailyrainin,SoftwareType,DateUTC
2013-01-22 00:00:00,36.6,33.7,30.08,East,99,3.0,3.0,89,0.00,,,-99.99,Weather View 32 v60,2013-01-22 08:00:00,
2013-01-22 00:05:00,36.4,33.5,30.08,East,90,2.0,4.0,89,0.00,,,-99.99,Weather View 32 v60,2013-01-22 08:05:00,
2013-01-22 00:10:00,36.2,33.3,30.08,SE,145,0.0,4.0,89,0.00,,,-99.99,Weather View 32 v60,2013-01-22 08:10:00,
2013-01-22 00:15:00,35.9,33.0,30.08,SE,145,0.0,4.0,89,0.00,,,-99.99,Weather View 32 v60,2013-01-22 08:15:00,
2013-01-22 00:20:00,35.7,32.8,30.09,SE,144,0.0,4.0,89,0.00,,,-99.99,Weather View 32 v60,2013-01-22 08:20:00,
2013-01-22 00:25:00,35.5,32.6,30.09,NE,52,1.0,4.0,89,0.00,,,-99.99,Weather View 32 v60,2013-01-22 08:25:00,
2013-01-22 00:30:00,35.2,32.3,30.09,NE,52,0.0,4.0,89,0.00,,,-99.99,Weather View 32 v60,2013-01-22 08:30:00,
2013-01-22 00:35:00,35.1,32.5,30.09,NE,52,0.0,4.0,90,0.00,,,-99.99,Weather View 32 v60,2013-01-22 08:35:00,
2013-01-22 00:40:00,35.1,32.5,30.09,North,349,0.0,4.0,90,0.00,,,-99.99,Weather View 32 v60,2013-01-22 08:40:00,
2013-01-22 00:45:00,35.0,32.4,30.09,North,349,0.0,4.0,90,0.00,,,-99.99,Weather View 32 v60,2013-01-22 08:45:00,
2013-01-22 00:50:00,35.0,32.4,30.09,North,349,0.0,4.0,90,0.00,,,-99.99,Weather View 32 v60,2013-01-22 08:50:00,
2013-01-22 01:10:00,34.5,31.9,30.09,ENE,58,1.0,2.0,90,0.00,,,-99.99,Weather View 32 v60,2013-01-22 09:10:00,
2013-01-22 01:15:00,34.2,31.6,30.09,ENE,58,0.0,2.0,90,0.00,,,-99.99,Weather View 32 v60,2013-01-22 09:15:00,
2013-01-22 01:20:00,34.3,31.9,30.09,WSW,248,1.0,2.0,91,0.00,,,-99.99,Weather View 32 v60,2013-01-22 09:20:00,
2013-01-22 01:25:00,34.2,31.6,30.09,WNW,285,1.0,2.0,90,0.00,,,-99.99,Weather View 32 v60,2013-01-22 09:25:00,
2013-01-22 01:30:00,34.1,31.5,30.09,NNE,16,2.0,2.0,90,0.00,,,-99.99,Weather View 32 v60,2013-01-22 09:30:00,
2013-01-22 01:35:00,34.2,31.8,30.09,NNE,20,2.0,3.0,91,0.00,,,-99.99,Weather View 32 v60,2013-01-22 09:35:00,
2013-01-22 01:40:00,34.1,31.7,30.09,North,359,1.0,3.0,91,0.00,,,-99.99,Weather View 32 v60,2013-01-22 09:40:00,
2013-01-22 01:45:00,34.1,31.7,30.09,North,0,2.0,3.0,91,0.00,,,-99.99,Weather View 32 v60,2013-01-22 09:45:00,
2013-01-22 01:50:00,34.2,31.8,30.09,NNE,33,2.0,3.0,91,0.00,,,-99.99,Weather View 32 v60,2013-01-22 09:50:00,
2013-01-22 01:57:00,34.9,32.3,30.09,North,349,0.0,4.0,90,0.00,,,-99.99,Weather View 32 v60,2013-01-22 09:57:00,
2013-01-22 02:02:00,34.6,32.0,30.09,North,349,0.0,4.0,90,0.00,,,-99.99,Weather View 32 v60,2013-01-22 10:02:00,
2013-01-22 02:07:00,34.7,32.1,30.09,East,94,1.0,2.0,90,0.00,,,-99.99,Weather View 32 v60,2013-01-22 10:07:00,
2013-01-22 02:20:00,34.0,31.6,30.09,NE,35,2.0,3.0,91,0.00,,,-99.99,Weather View 32 v60,2013-01-22 10:20:00,
2013-01-22 02:35:00,33.4,31.3,30.09,WNW,282,2.0,3.0,92,0.00,,,-99.99,Weather View 32 v60,2013-01-22 10:35:00,
2013-01-22 02:40:00,33.5,31.4,30.09,NW,320,1.0,3.0,92,0.00,,,-99.99,Weather View 32 v60,2013-01-22 10:40:00,
2013-01-22 02:41:00,34.2,31.8,30.09,NNE,20,2.0,3.0,91,0.00,,,-99.99,Weather View 32 v60,2013-01-22 10:41:00,
2013-01-22 02:55:00,33.5,31.4,30.09,NNW,331,3.0,3.0,92,0.00,,,-99.99,Weather View 32 v60,2013-01-22 10:55:00,
2013-01-22 02:57:00,34.1,31.7,30.09,NNW,346,1.0,3.0,91,0.00,,,-99.99,Weather View 32 v60,2013-01-22 10:57:00,
2013-01-22 03:00:00,33.6,31.5,30.09,NNW,341,2.0,4.0,92,0.00,,,-99.99,Weather View 32 v60,2013-01-22 11:00:00,
2013-01-22 03:07:00,34.3,31.9,30.10,WNW,302,1.0,3.0,91,0.00,,,-99.99,Weather View 32 v60,2013-01-22 11:07:00,
2013-01-22 03:12:00,34.2,31.8,30.09,NNW,328,2.0,3.0,91,0.00,,,-99.99,Weather View 32 v60,2013-01-22 11:12:00,
2013-01-22 03:17:00,34.3,31.9,30.09,North,10,2.0,3.0,91,0.00,,,-99.99,Weather View 32 v60,2013-01-22 11:17:00,
2013-01-22 03:20:00,33.7,31.6,30.09,NNW,336,2.0,4.0,92,0.00,,,-99.99,Weather View 32 v60,2013-01-22 11:20:00,
2013-01-22 03:27:00,33.7,31.4,30.09,NE,36,1.0,3.0,91,0.00,,,-99.99,Weather View 32 v60,2013-01-22 11:27:00,
2013-01-22 03:30:00,33.6,31.5,30.09,NNW,337,2.0,4.0,92,0.00,,,-99.99,Weather View 32 v60,2013-01-22 11:30:00,
2013-01-22 03:32:00,33.5,31.2,30.09,NE,40,0.0,3.0,91,0.00,,,-99.99,Weather View 32 v60,2013-01-22 11:32:00,
2013-01-22 03:35:00,33.5,31.4,30.09,NNW,337,1.0,4.0,92,0.00,,,-99.99,Weather View 32 v60,2013-01-22 11:35:00,
2013-01-22 03:37:00,33.4,31.3,30.09,WNW,282,2.0,3.0,92,0.00,,,-99.99,Weather View 32 v60,2013-01-22 11:37:00,
2013-01-22 03:40:00,33.5,31.4,30.09,WNW,290,2.0,4.0,92,0.00,,,-99.99,Weather View 32 v60,2013-01-22 11:40:00,
2013-01-22 03:45:00,33.5,31.4,30.09,NW,316,3.0,4.0,92,0.00,,,-99.99,Weather View 32 v60,2013-01-22 11:45:00,
2013-01-22 03:47:00,33.6,31.5,30.09,NW,322,2.0,3.0,92,0.00,,,-99.99,Weather View 32 v60,2013-01-22 11:47:00,
2013-01-22 03:52:00,33.5,31.4,30.09,NW,305,1.0,3.0,92,0.00,,,-99.99,Weather View 32 v60,2013-01-22 11:52:00,
2013-01-22 04:00:00,33.7,31.9,30.09,NNW,336,1.0,5.0,93,0.00,,,-99.99,Weather View 32 v60,2013-01-22 12:00:00,
2013-01-22 04:07:00,33.9,31.8,30.08,North,358,2.0,4.0,92,0.00,,,-99.99,Weather View 32 v60,2013-01-22 12:07:00,
2013-01-22 04:10:00,34.2,32.4,30.09,NNW,332,2.0,5.0,93,0.00,,,-99.99,Weather View 32 v60,2013-01-22 12:10:00,
2013-01-22 04:12:00,34.0,31.9,30.09,NNW,339,1.0,4.0,92,0.00,,,-99.99,Weather View 32 v60,2013-01-22 12:12:00,
2013-01-22 04:15:00,34.3,32.5,30.09,NW,322,2.0,5.0,93,0.00,,,-99.99,Weather View 32 v60,2013-01-22 12:15:00,
2013-01-22 04:17:00,33.9,31.8,30.09,NNW,339,1.0,4.0,92,0.00,,,-99.99,Weather View 32 v60,2013-01-22 12:17:00,
2013-01-22 04:25:00,33.6,31.5,30.10,NNW,329,0.0,5.0,92,0.00,,,-99.99,Weather View 32 v60,2013-01-22 12:25:00,
2013-01-22 04:27:00,33.7,31.6,30.09,NW,310,2.0,4.0,92,0.00,,,-99.99,Weather View 32 v60,2013-01-22 12:27:00,
2013-01-22 04:45:00,33.1,31.3,30.10,East,90,4.0,5.0,93,0.00,,,-99.99,Weather View 32 v60,2013-01-22 12:45:00,
2013-01-22 04:52:00,33.5,31.4,30.09,NW,314,2.0,4.0,92,0.00,,,-99.99,Weather View 32 v60,2013-01-22 12:52:00,
2013-01-22 04:55:00,32.7,30.9,30.10,ESE,118,0.0,5.0,93,0.00,,,-99.99,Weather View 32 v60,2013-01-22 12:55:00,
2013-01-22 04:57:00,33.5,31.4,30.09,NW,307,2.0,4.0,92,0.00,,,-99.99,Weather View 32 v60,2013-01-22 12:57:00,
2013-01-22 05:05:00,32.2,30.4,30.10,ESE,118,0.0,5.0,93,0.00,,,-99.99,Weather View 32 v60,2013-01-22 13:05:00,
2013-01-22 05:08:00,33.9,32.1,30.09,NNW,332,1.0,5.0,93,0.00,,,-99.99,Weather View 32 v60,2013-01-22 13:08:00,
2013-01-22 05:10:00,32.1,30.3,30.10,West,260,2.0,5.0,93,0.00,,,-99.99,Weather View 32 v60,2013-01-22 13:10:00,
2013-01-22 05:20:00,32.2,30.4,30.10,West,261,0.0,5.0,93,0.00,,,-99.99,Weather View 32 v60,2013-01-22 13:20:00,
2013-01-22 05:22:00,34.0,31.9,30.09,WNW,302,1.0,5.0,92,0.00,,,-99.99,Weather View 32 v60,2013-01-22 13:22:00,
2013-01-22 05:25:00,32.0,30.2,30.11,West,261,0.0,5.0,93,0.00,,,-99.99,Weather View 32 v60,2013-01-22 13:25:00,
2013-01-22 05:30:00,31.7,29.9,30.11,North,5,0.0,5.0,93,0.00,,,-99.99,Weather View 32 v60,2013-01-22 13:30:00,
2013-01-22 05:32:00,33.3,31.5,30.10,North,8,0.0,5.0,93,0.00,,,-99.99,Weather View 32 v60,2013-01-22 13:32:00,
2013-01-22 05:35:00,31.5,29.7,30.11,ENE,66,2.0,5.0,93,0.00,,,-99.99,Weather View 32 v60,2013-01-22 13:35:00,
2013-01-22 05:40:00,31.7,29.9,30.11,East,79,2.0,5.0,93,0.00,,,-99.99,Weather View 32 v60,2013-01-22 13:40:00,
2013-01-22 05:43:00,33.1,31.3,30.10,ESE,112,2.0,5.0,93,0.00,,,-99.99,Weather View 32 v60,2013-01-22 13:43:00,
2013-01-22 05:45:00,31.7,29.9,30.11,East,93,3.0,5.0,93,0.00,,,-99.99,Weather View 32 v60,2013-01-22 13:45:00,
2013-01-22 05:50:00,31.4,29.6,30.11,ENE,77,2.0,5.0,93,0.00,,,-99.99,Weather View 32 v60,2013-01-22 13:50:00,
2013-01-22 05:52:00,32.9,31.1,30.10,East,99,0.0,5.0,93,0.00,,,-99.99,Weather View 32 v60,2013-01-22 13:52:00,
2013-01-22 06:00:00,31.3,29.5,30.11,ENE,70,0.0,5.0,93,0.00,,,-99.99,Weather View 32 v60,2013-01-22 14:00:00,
2013-01-22 06:02:00,32.4,30.6,30.10,ESE,118,0.0,5.0,93,0.00,,,-99.99,Weather View 32 v60,2013-01-22 14:02:00,
2013-01-22 06:10:00,31.3,29.5,30.11,WNW,288,1.0,5.0,93,0.00,,,-99.99,Weather View 32 v60,2013-01-22 14:10:00,
2013-01-22 06:17:00,32.1,30.3,30.10,West,259,2.0,5.0,93,0.00,,,-99.99,Weather View 32 v60,2013-01-22 14:17:00,
2013-01-22 06:25:00,31.7,29.9,30.11,SW,235,0.0,5.0,93,0.00,,,-99.99,Weather View 32 v60,2013-01-22 14:25:00,
2013-01-22 06:30:00,31.5,29.7,30.11,WNW,282,0.0,5.0,93,0.00,,,-99.99,Weather View 32 v60,2013-01-22 14:30:00,
2013-01-22 06:40:00,31.6,30.1,30.11,NE,45,1.0,5.0,94,0.00,,,-99.99,Weather View 32 v60,2013-01-22 14:40:00,
2013-01-22 06:42:00,31.7,29.9,30.11,East,79,2.0,5.0,93,0.00,,,-99.99,Weather View 32 v60,2013-01-22 14:42:00,
2013-01-22 06:45:00,31.7,30.2,30.11,NNE,28,2.0,5.0,94,0.00,,,-99.99,Weather View 32 v60,2013-01-22 14:45:00,
2013-01-22 06:57:00,31.4,29.6,30.11,ENE,74,2.0,5.0,93,0.00,,,-99.99,Weather View 32 v60,2013-01-22 14:57:00,
2013-01-22 07:05:00,33.4,31.9,30.11,NNW,342,0.0,3.0,94,0.00,,,-99.99,Weather View 32 v60,2013-01-22 15:05:00,
2013-01-22 07:07:00,31.2,29.4,30.11,West,275,2.0,5.0,93,0.00,,,-99.99,Weather View 32 v60,2013-01-22 15:07:00,
2013-01-22 07:10:00,34.2,32.7,30.11,NNE,32,1.0,3.0,94,0.00,,,-99.99,Weather View 32 v60,2013-01-22 15:10:00,
2013-01-22 07:15:00,34.8,33.2,30.11,NNE,27,1.0,3.0,94,0.00,,,-99.99,Weather View 32 v60,2013-01-22 15:15:00,
2013-01-22 07:17:00,31.5,30.0,30.11,SW,223,1.0,5.0,94,0.00,,,-99.99,Weather View 32 v60,2013-01-22 15:17:00,
2013-01-22 07:20:00,35.2,33.6,30.11,NNE,13,0.0,3.0,94,0.00,,,-99.99,Weather View 32 v60,2013-01-22 15:20:00,
2013-01-22 07:22:00,31.8,30.3,30.11,SW,230,1.0,5.0,94,0.00,,,-99.99,Weather View 32 v60,2013-01-22 15:22:00,
2013-01-22 07:30:00,36.0,34.4,30.11,NNW,335,2.0,3.0,94,0.00,,,-99.99,Weather View 32 v60,2013-01-22 15:30:00,
2013-01-22 07:35:00,36.4,34.6,30.11,NW,321,2.0,5.0,93,0.00,,,-99.99,Weather View 32 v60,2013-01-22 15:35:00,
2013-01-22 07:37:00,31.5,29.7,30.11,NE,45,1.0,5.0,93,0.00,,,-99.99,Weather View 32 v60,2013-01-22 15:37:00,
2013-01-22 07:40:00,36.8,35.0,30.11,NW,318,5.0,6.0,93,0.00,,,-99.99,Weather View 32 v60,2013-01-22 15:40:00,
2013-01-22 07:45:00,37.0,35.2,30.11,NNW,337,3.0,7.0,93,0.00,,,-99.99,Weather View 32 v60,2013-01-22 15:45:00,
2013-01-22 07:50:00,37.4,35.3,30.11,NW,325,4.0,7.0,92,0.00,,,-99.99,Weather View 32 v60,2013-01-22 15:50:00,
2013-01-22 07:52:00,31.9,30.4,30.11,NE,44,1.0,4.0,94,0.00,,,-99.99,Weather View 32 v60,2013-01-22 15:52:00,
2013-01-22 07:57:00,32.2,30.7,30.11,North,4,2.0,3.0,94,0.00,,,-99.99,Weather View 32 v60,2013-01-22 15:57:00,
2013-01-22 08:02:00,32.6,31.1,30.11,NNW,343,1.0,3.0,94,0.00,,,-99.99,Weather View 32 v60,2013-01-22 16:02:00,
2013-01-22 08:20:00,41.8,37.9,30.10,WNW,295,2.0,7.0,86,0.00,,,-99.99,Weather View 32 v60,2013-01-22 16:20:00,
2013-01-22 08:30:00,43.4,38.0,30.10,NW,315,3.0,7.0,81,0.00,,,-99.99,Weather View 32 v60,2013-01-22 16:30:00,
2013-01-22 08:40:00,44.3,37.9,30.10,NNW,327,4.0,7.0,78,0.00,,,-99.99,Weather View 32 v60,2013-01-22 16:40:00,
2013-01-22 08:44:00,36.8,35.0,30.11,NW,318,5.0,6.0,93,0.00,,,-99.99,Weather View 32 v60,2013-01-22 16:44:00,
2013-01-22 08:50:00,46.1,38.3,30.10,NW,317,2.0,5.0,74,0.00,,,-99.99,Weather View 32 v60,2013-01-22 16:50:00,
2013-01-22 08:57:00,38.0,35.9,30.11,NNW,328,3.0,7.0,92,0.00,,,-99.99,Weather View 32 v60,2013-01-22 16:57:00,
2013-01-22 09:07:00,39.6,37.2,30.11,NNW,327,1.0,7.0,91,0.00,,,-99.99,Weather View 32 v60,2013-01-22 17:07:00,
2013-01-22 09:10:00,48.1,37.6,30.10,WNW,290,4.0,5.0,67,0.00,,,-99.99,Weather View 32 v60,2013-01-22 17:10:00,
2013-01-22 09:12:00,40.4,37.4,30.10,NW,320,3.0,7.0,89,0.00,,,-99.99,Weather View 32 v60,2013-01-22 17:12:00,
2013-01-22 09:15:00,49.0,38.1,30.09,WNW,284,2.0,5.0,66,0.00,,,-99.99,Weather View 32 v60,2013-01-22 17:15:00,
2013-01-22 09:17:00,40.7,37.1,30.10,NW,315,2.0,7.0,87,0.00,,,-99.99,Weather View 32 v60,2013-01-22 17:17:00,
2013-01-22 09:27:00,42.8,38.0,30.10,NW,310,2.0,7.0,83,0.00,,,-99.99,Weather View 32 v60,2013-01-22 17:27:00,
2013-01-22 09:37:00,43.8,38.0,30.10,NW,315,2.0,7.0,80,0.00,,,-99.99,Weather View 32 v60,2013-01-22 17:37:00,
2013-01-22 09:47:00,45.0,37.9,30.10,NW,313,2.0,6.0,76,0.00,,,-99.99,Weather View 32 v60,2013-01-22 17:47:00,
2013-01-22 09:57:00,46.6,38.0,30.10,WNW,301,3.0,5.0,72,0.00,,,-99.99,Weather View 32 v60,2013-01-22 17:57:00,
2013-01-22 10:02:00,47.0,37.7,30.10,WNW,301,2.0,5.0,70,0.00,,,-99.99,Weather View 32 v60,2013-01-22 18:02:00,
2013-01-22 10:07:00,47.5,38.2,30.09,WNW,300,3.0,5.0,70,0.00,,,-99.99,Weather View 32 v60,2013-01-22 18:07:00,
2013-01-22 10:20:00,55.7,36.8,30.07,WNW,299,2.0,6.0,49,0.00,,,-99.99,Weather View 32 v60,2013-01-22 18:20:00,
2013-01-22 10:22:00,49.6,38.3,30.09,West,261,2.0,5.0,65,0.00,,,-99.99,Weather View 32 v60,2013-01-22 18:22:00,
2013-01-22 10:32:00,51.0,37.6,30.09,NW,304,2.0,5.0,60,0.00,,,-99.99,Weather View 32 v60,2013-01-22 18:32:00,
2013-01-22 10:37:00,51.0,37.2,30.09,NNE,30,2.0,5.0,59,0.00,,,-99.99,Weather View 32 v60,2013-01-22 18:37:00,
2013-01-22 10:42:00,52.2,36.9,30.09,West,277,2.0,5.0,56,0.00,,,-99.99,Weather View 32 v60,2013-01-22 18:42:00,
2013-01-22 10:47:00,52.7,37.0,30.08,NW,306,4.0,5.0,55,0.00,,,-99.99,Weather View 32 v60,2013-01-22 18:47:00,
2013-01-22 10:57:00,54.1,36.8,30.08,NNW,328,1.0,5.0,52,0.00,,,-99.99,Weather View 32 v60,2013-01-22 18:57:00,
2013-01-22 11:02:00,54.4,36.1,30.08,West,263,4.0,5.0,50,0.00,,,-99.99,Weather View 32 v60,2013-01-22 19:02:00,
2013-01-22 11:07:00,54.6,35.8,30.08,WNW,288,3.0,6.0,49,0.00,,,-99.99,Weather View 32 v60,2013-01-22 19:07:00,
2013-01-22 11:12:00,54.4,36.1,30.07,West,278,3.0,6.0,50,0.00,,,-99.99,Weather View 32 v60,2013-01-22 19:12:00,
2013-01-22 11:27:00,56.0,36.5,30.07,ESE,106,1.0,6.0,48,0.00,,,-99.99,Weather View 32 v60,2013-01-22 19:27:00,
2013-01-22 11:32:00,57.1,37.0,30.06,NW,321,2.0,6.0,47,0.00,,,-99.99,Weather View 32 v60,2013-01-22 19:32:00,
2013-01-22 11:37:00,57.0,36.4,30.06,SE,138,1.0,6.0,46,0.00,,,-99.99,Weather View 32 v60,2013-01-22 19:37:00,
2013-01-22 11:40:00,61.6,35.0,30.01,WSW,242,1.0,6.0,37,0.00,,,-99.99,Weather View 32 v60,2013-01-22 19:40:00,
2013-01-22 11:46:00,57.0,35.8,30.05,SSW,204,2.0,6.0,45,0.00,,,-99.99,Weather View 32 v60,2013-01-22 19:46:00,
2013-01-22 11:50:00,61.8,34.5,30.00,SE,130,5.0,6.0,36,0.00,,,-99.99,Weather View 32 v60,2013-01-22 19:50:00,
2013-01-22 11:52:00,59.4,36.8,30.04,East,93,2.0,6.0,43,0.00,,,-99.99,Weather View 32 v60,2013-01-22 19:52:00,
2013-01-22 11:57:00,59.2,36.1,30.04,ESE,111,1.0,6.0,42,0.00,,,-99.99,Weather View 32 v60,2013-01-22 19:57:00,
2013-01-22 12:07:00,58.8,35.1,30.03,South,175,4.0,6.0,41,0.00,,,-99.99,Weather View 32 v60,2013-01-22 20:07:00,
2013-01-22 12:12:00,59.8,35.4,30.03,South,174,2.0,5.0,40,0.00,,,-99.99,Weather View 32 v60,2013-01-22 20:12:00,
2013-01-22 12:17:00,60.1,35.6,30.02,SE,143,3.0,6.0,40,0.00,,,-99.99,Weather View 32 v60,2013-01-22 20:17:00,
2013-01-22 12:22:00,60.1,35.6,30.02,WSW,252,2.0,6.0,40,0.00,,,-99.99,Weather View 32 v60,2013-01-22 20:22:00,
2013-01-22 12:25:00,62.8,36.8,29.97,SSE,150,1.0,6.0,38,0.00,,,-99.99,Weather View 32 v60,2013-01-22 20:25:00,
2013-01-22 12:27:00,59.9,34.8,30.01,SW,221,3.0,6.0,39,0.00,,,-99.99,Weather View 32 v60,2013-01-22 20:27:00,
2013-01-22 12:30:00,62.8,37.4,29.97,SSE,153,4.0,7.0,39,0.00,,,-99.99,Weather View 32 v60,2013-01-22 20:30:00,
2013-01-22 12:32:00,60.0,34.9,30.01,SSE,156,3.0,6.0,39,0.00,,,-99.99,Weather View 32 v60,2013-01-22 20:32:00,
2013-01-22 12:40:00,62.6,37.2,29.96,SSW,213,4.0,7.0,39,0.00,,,-99.99,Weather View 32 v60,2013-01-22 20:40:00,
2013-01-22 12:42:00,61.6,35.0,30.01,WSW,242,1.0,6.0,37,0.00,,,-99.99,Weather View 32 v60,2013-01-22 20:42:00,
2013-01-22 12:47:00,61.5,34.9,30.00,SE,143,3.0,6.0,37,0.00,,,-99.99,Weather View 32 v60,2013-01-22 20:47:00,
2013-01-22 12:50:00,62.9,37.5,29.96,SSW,207,5.0,11.0,39,0.00,,,-99.99,Weather View 32 v60,2013-01-22 20:50:00,
2013-01-22 12:57:00,61.6,35.0,29.99,South,171,4.0,6.0,37,0.00,,,-99.99,Weather View 32 v60,2013-01-22 20:57:00,
2013-01-22 13:02:00,61.0,35.8,29.99,ESE,108,1.0,6.0,39,0.00,,,-99.99,Weather View 32 v60,2013-01-22 21:02:00,
2013-01-22 13:05:00,62.2,38.2,29.96,SW,221,5.0,11.0,41,0.00,,,-99.99,Weather View 32 v60,2013-01-22 21:05:00,
2013-01-22 13:07:00,61.3,36.1,29.99,SSE,155,3.0,6.0,39,0.00,,,-99.99,Weather View 32 v60,2013-01-22 21:07:00,
2013-01-22 13:10:00,61.9,37.9,29.96,South,175,5.0,11.0,41,0.00,,,-99.99,Weather View 32 v60,2013-01-22 21:10:00,
2013-01-22 13:15:00,61.6,37.6,29.96,SSE,150,2.0,11.0,41,0.00,,,-99.99,Weather View 32 v60,2013-01-22 21:15:00,
2013-01-22 13:17:00,61.9,36.6,29.98,SSE,162,5.0,6.0,39,0.00,,,-99.99,Weather View 32 v60,2013-01-22 21:17:00,
2013-01-22 13:20:00,61.3,37.3,29.96,SW,219,4.0,11.0,41,0.00,,,-99.99,Weather View 32 v60,2013-01-22 21:20:00,
2013-01-22 13:25:00,61.2,37.3,29.96,South,175,4.0,11.0,41,0.00,,,-99.99,Weather View 32 v60,2013-01-22 21:25:00,
2013-01-22 13:30:00,61.1,37.8,29.95,SSE,168,2.0,11.0,42,0.00,,,-99.99,Weather View 32 v60,2013-01-22 21:30:00,
2013-01-22 13:37:00,63.0,37.6,29.97,SSE,165,4.0,7.0,39,0.00,,,-99.99,Weather View 32 v60,2013-01-22 21:37:00,
2013-01-22 13:42:00,62.6,37.2,29.96,SSW,213,4.0,7.0,39,0.00,,,-99.99,Weather View 32 v60,2013-01-22 21:42:00,
2013-01-22 13:45:00,61.4,38.1,29.96,West,264,4.0,11.0,42,0.00,,,-99.99,Weather View 32 v60,2013-01-22 21:45:00,
2013-01-22 13:47:00,62.8,38.1,29.96,West,263,5.0,7.0,40,0.00,,,-99.99,Weather View 32 v60,2013-01-22 21:47:00,
2013-01-22 13:57:00,62.1,37.4,29.96,South,170,4.0,11.0,40,0.00,,,-99.99,Weather View 32 v60,2013-01-22 21:57:00,
2013-01-22 14:02:00,62.1,38.1,29.96,SW,231,3.0,11.0,41,0.00,,,-99.99,Weather View 32 v60,2013-01-22 22:02:00,
2013-01-22 14:30:00,62.0,39.8,29.95,SSW,209,1.0,6.0,44,0.00,,,-99.99,Weather View 32 v60,2013-01-22 22:30:00,
2013-01-22 14:35:00,62.0,39.8,29.95,East,94,2.0,6.0,44,0.00,,,-99.99,Weather View 32 v60,2013-01-22 22:35:00,
2013-01-22 14:37:00,61.1,37.8,29.96,WSW,256,1.0,11.0,42,0.00,,,-99.99,Weather View 32 v60,2013-01-22 22:37:00,
2013-01-22 14:42:00,61.3,38.0,29.96,SSE,165,3.0,11.0,42,0.00,,,-99.99,Weather View 32 v60,2013-01-22 22:42:00,
2013-01-22 14:45:00,61.1,39.5,29.94,SE,139,2.0,6.0,45,0.00,,,-99.99,Weather View 32 v60,2013-01-22 22:45:00,
2013-01-22 14:50:00,60.8,39.8,29.94,East,82,3.0,6.0,46,0.00,,,-99.99,Weather View 32 v60,2013-01-22 22:50:00,
2013-01-22 14:52:00,61.3,38.6,29.96,WSW,255,3.0,11.0,43,0.00,,,-99.99,Weather View 32 v60,2013-01-22 22:52:00,
2013-01-22 14:55:00,60.6,39.7,29.94,ESE,123,2.0,6.0,46,0.00,,,-99.99,Weather View 32 v60,2013-01-22 22:55:00,
2013-01-22 15:02:00,60.9,38.2,29.96,West,259,3.0,8.0,43,0.00,,,-99.99,Weather View 32 v60,2013-01-22 23:02:00,
2013-01-22 15:05:00,60.7,40.3,29.94,SE,131,1.0,4.0,47,0.00,,,-99.99,Weather View 32 v60,2013-01-22 23:05:00,
2013-01-22 15:07:00,60.9,38.8,29.96,WSW,237,1.0,8.0,44,0.00,,,-99.99,Weather View 32 v60,2013-01-22 23:07:00,
2013-01-22 15:12:00,61.7,39.5,29.96,SW,236,2.0,8.0,44,0.00,,,-99.99,Weather View 32 v60,2013-01-22 23:12:00,
2013-01-22 15:17:00,62.2,39.4,29.96,SSW,205,2.0,8.0,43,0.00,,,-99.99,Weather View 32 v60,2013-01-22 23:17:00,
2013-01-22 15:25:00,60.5,40.7,29.93,SSE,155,0.0,4.0,48,0.00,,,-99.99,Weather View 32 v60,2013-01-22 23:25:00,
2013-01-22 15:27:00,61.9,39.1,29.95,South,173,1.0,6.0,43,0.00,,,-99.99,Weather View 32 v60,2013-01-22 23:27:00,
2013-01-22 15:30:00,60.4,40.0,29.92,WSW,249,2.0,4.0,47,0.00,,,-99.99,Weather View 32 v60,2013-01-22 23:30:00,
2013-01-22 15:40:00,60.1,40.3,29.92,SSE,158,1.0,4.0,48,0.00,,,-99.99,Weather View 32 v60,2013-01-22 23:40:00,
2013-01-22 15:42:00,61.4,39.2,29.94,ESE,102,2.0,6.0,44,0.00,,,-99.99,Weather View 32 v60,2013-01-22 23:42:00,
2013-01-22 15:47:00,61.1,39.5,29.94,SE,139,2.0,6.0,45,0.00,,,-99.99,Weather View 32 v60,2013-01-22 23:47:00,
2013-01-22 15:50:00,59.8,40.6,29.92,WSW,256,4.0,5.0,49,0.00,,,-99.99,Weather View 32 v60,2013-01-22 23:50:00,
2013-01-22 15:55:00,59.3,40.1,29.93,SSW,211,2.0,6.0,49,0.00,,,-99.99,Weather View 32 v60,2013-01-22 23:55:00,
2013-01-22 16:02:00,60.6,40.2,29.94,SE,131,1.0,6.0,47,0.00,,,-99.99,Weather View 32 v60,2013-01-23 00:02:00,
2013-01-22 16:12:00,60.7,40.3,29.93,East,91,1.0,4.0,47,0.00,,,-99.99,Weather View 32 v60,2013-01-23 00:12:00,
2013-01-22 16:15:00,57.8,39.2,29.93,SW,235,4.0,8.0,50,0.00,,,-99.99,Weather View 32 v60,2013-01-23 00:15:00,
2013-01-22 16:17:00,60.5,40.1,29.93,ENE,72,2.0,4.0,47,0.00,,,-99.99,Weather View 32 v60,2013-01-23 00:17:00,
2013-01-22 16:22:00,60.4,40.0,29.93,East,85,2.0,4.0,47,0.00,,,-99.99,Weather View 32 v60,2013-01-23 00:22:00,
2013-01-22 16:37:00,60.2,40.4,29.92,SSE,159,2.0,4.0,48,0.00,,,-99.99,Weather View 32 v60,2013-01-23 00:37:00,
2013-01-22 16:45:00,55.5,38.6,29.93,East,90,2.0,8.0,53,0.00,,,-99.99,Weather View 32 v60,2013-01-23 00:45:00,
2013-01-22 16:47:00,60.0,40.2,29.92,SW,216,3.0,4.0,48,0.00,,,-99.99,Weather View 32 v60,2013-01-23 00:47:00,
2013-01-22 16:55:00,55.0,38.6,29.93,ESE,114,2.0,8.0,54,0.00,,,-99.99,Weather View 32 v60,2013-01-23 00:55:00,
2013-01-22 17:00:00,54.9,39.0,29.94,SE,131,2.0,8.0,55,0.00,,,-99.99,Weather View 32 v60,2013-01-23 01:00:00,
2013-01-22 17:02:00,59.0,39.8,29.93,SW,215,4.0,6.0,49,0.00,,,-99.99,Weather View 32 v60,2013-01-23 01:02:00,
2013-01-22 17:05:00,54.7,38.8,29.94,SE,133,1.0,8.0,55,0.00,,,-99.99,Weather View 32 v60,2013-01-23 01:05:00,
2013-01-22 17:22:00,57.1,38.6,29.93,SSW,205,4.0,8.0,50,0.00,,,-99.99,Weather View 32 v60,2013-01-23 01:22:00,
2013-01-22 17:25:00,53.5,39.1,29.95,ENE,73,0.0,4.0,58,0.00,,,-99.99,Weather View 32 v60,2013-01-23 01:25:00,
2013-01-22 17:27:00,56.7,38.7,29.93,South,173,3.0,8.0,51,0.00,,,-99.99,Weather View 32 v60,2013-01-23 01:27:00,
2013-01-22 17:32:00,56.4,39.0,29.93,SSE,151,2.0,8.0,52,0.00,,,-99.99,Weather View 32 v60,2013-01-23 01:32:00,
2013-01-22 17:37:00,56.0,38.6,29.93,SE,130,2.0,8.0,52,0.00,,,-99.99,Weather View 32 v60,2013-01-23 01:37:00,
2013-01-22 17:45:00,52.0,39.4,29.95,ENE,60,3.0,4.0,62,0.00,,,-99.99,Weather View 32 v60,2013-01-23 01:45:00,
2013-01-22 17:50:00,51.6,39.4,29.94,NE,39,3.0,4.0,63,0.00,,,-99.99,Weather View 32 v60,2013-01-23 01:50:00,
2013-01-22 17:52:00,55.3,38.9,29.93,East,97,2.0,8.0,54,0.00,,,-99.99,Weather View 32 v60,2013-01-23 01:52:00,
2013-01-22 17:55:00,51.3,39.5,29.94,NE,55,2.0,4.0,64,0.00,,,-99.99,Weather View 32 v60,2013-01-23 01:55:00,
2013-01-22 18:10:00,50.6,39.6,29.94,NE,50,2.0,4.0,66,0.00,,,-99.99,Weather View 32 v60,2013-01-23 02:10:00,
2013-01-22 18:12:00,54.4,39.0,29.94,ESE,107,1.0,8.0,56,0.00,,,-99.99,Weather View 32 v60,2013-01-23 02:12:00,
2013-01-22 18:15:00,50.3,39.7,29.95,ENE,60,1.0,4.0,67,0.00,,,-99.99,Weather View 32 v60,2013-01-23 02:15:00,
2013-01-22 18:17:00,54.1,38.7,29.94,East,97,2.0,7.0,56,0.00,,,-99.99,Weather View 32 v60,2013-01-23 02:17:00,
2013-01-22 18:20:00,50.1,39.6,29.95,ENE,66,2.0,4.0,67,0.00,,,-99.99,Weather View 32 v60,2013-01-23 02:20:00,
2013-01-22 18:25:00,49.9,39.7,29.94,ENE,75,2.0,5.0,68,0.00,,,-99.99,Weather View 32 v60,2013-01-23 02:25:00,
2013-01-22 18:30:00,49.9,39.7,29.94,ENE,57,2.0,5.0,68,0.00,,,-99.99,Weather View 32 v60,2013-01-23 02:30:00,
2013-01-22 18:32:00,53.1,39.1,29.95,East,87,0.0,4.0,59,0.00,,,-99.99,Weather View 32 v60,2013-01-23 02:32:00,
2013-01-22 18:35:00,49.9,39.4,29.94,NE,54,2.0,5.0,67,0.00,,,-99.99,Weather View 32 v60,2013-01-23 02:35:00,
2013-01-22 18:37:00,52.7,39.2,29.95,East,87,0.0,4.0,60,0.00,,,-99.99,Weather View 32 v60,2013-01-23 02:37:00,
2013-01-22 18:50:00,52.0,39.4,29.95,ENE,60,3.0,4.0,62,0.00,,,-99.99,Weather View 32 v60,2013-01-23 02:50:00,
2013-01-22 19:02:00,51.0,39.6,29.94,East,89,3.0,4.0,65,0.00,,,-99.99,Weather View 32 v60,2013-01-23 03:02:00,
2013-01-22 19:07:00,50.8,39.8,29.94,ESE,108,2.0,4.0,66,0.00,,,-99.99,Weather View 32 v60,2013-01-23 03:07:00,
2013-01-22 19:15:00,49.1,39.7,29.95,NNE,26,0.0,5.0,70,0.00,,,-99.99,Weather View 32 v60,2013-01-23 03:15:00,
2013-01-22 19:35:00,48.6,39.6,29.96,NNE,31,1.0,4.0,71,0.00,,,-99.99,Weather View 32 v60,2013-01-23 03:35:00,
2013-01-22 19:42:00,49.7,39.5,29.94,ENE,68,4.0,5.0,68,0.00,,,-99.99,Weather View 32 v60,2013-01-23 03:42:00,
2013-01-22 19:47:00,49.5,39.4,29.94,ENE,68,2.0,5.0,68,0.00,,,-99.99,Weather View 32 v60,2013-01-23 03:47:00,
2013-01-22 19:52:00,49.3,39.2,29.94,NE,42,0.0,5.0,68,0.00,,,-99.99,Weather View 32 v60,2013-01-23 03:52:00,
2013-01-22 19:57:00,49.3,39.5,29.95,NE,41,0.0,5.0,69,0.00,,,-99.99,Weather View 32 v60,2013-01-23 03:57:00,
2013-01-22 20:02:00,49.2,39.4,29.94,NE,41,0.0,5.0,69,0.00,,,-99.99,Weather View 32 v60,2013-01-23 04:02:00,
2013-01-22 20:05:00,47.7,39.1,29.97,ENE,72,4.0,4.0,72,0.00,,,-99.99,Weather View 32 v60,2013-01-23 04:05:00,
2013-01-22 20:07:00,49.1,39.4,29.94,NE,35,0.0,5.0,69,0.00,,,-99.99,Weather View 32 v60,2013-01-23 04:07:00,
2013-01-22 20:10:00,47.6,39.0,29.97,ENE,62,1.0,4.0,72,0.00,,,-99.99,Weather View 32 v60,2013-01-23 04:10:00,
2013-01-22 20:15:00,47.4,39.2,29.97,ENE,68,2.0,4.0,73,0.00,,,-99.99,Weather View 32 v60,2013-01-23 04:15:00,
2013-01-22 20:20:00,47.3,39.1,29.97,ENE,66,4.0,4.0,73,0.00,,,-99.99,Weather View 32 v60,2013-01-23 04:20:00,
2013-01-22 20:22:00,49.1,39.7,29.95,NNE,26,0.0,5.0,70,0.00,,,-99.99,Weather View 32 v60,2013-01-23 04:22:00,
2013-01-22 20:25:00,47.2,39.0,29.97,ENE,63,3.0,4.0,73,0.00,,,-99.99,Weather View 32 v60,2013-01-23 04:25:00,
2013-01-22 20:32:00,48.8,39.8,29.95,NNE,33,1.0,5.0,71,0.00,,,-99.99,Weather View 32 v60,2013-01-23 04:32:00,
2013-01-22 20:35:00,46.9,39.0,29.97,NE,48,2.0,4.0,74,0.00,,,-99.99,Weather View 32 v60,2013-01-23 04:35:00,
2013-01-22 20:40:00,46.6,38.7,29.97,NNE,30,2.0,4.0,74,0.00,,,-99.99,Weather View 32 v60,2013-01-23 04:40:00,
2013-01-22 20:42:00,48.4,39.4,29.96,ENE,66,1.0,4.0,71,0.00,,,-99.99,Weather View 32 v60,2013-01-23 04:42:00,
2013-01-22 20:45:00,46.4,38.6,29.97,NNE,28,1.0,4.0,74,0.00,,,-99.99,Weather View 32 v60,2013-01-23 04:45:00,
2013-01-22 20:50:00,46.1,38.6,29.97,NNE,21,1.0,4.0,75,0.00,,,-99.99,Weather View 32 v60,2013-01-23 04:50:00,
2013-01-22 20:52:00,47.9,39.3,29.96,ENE,57,3.0,4.0,72,0.00,,,-99.99,Weather View 32 v60,2013-01-23 04:52:00,
2013-01-22 20:55:00,46.0,38.8,29.96,NNE,31,3.0,4.0,76,0.00,,,-99.99,Weather View 32 v60,2013-01-23 04:55:00,
2013-01-22 20:57:00,47.9,39.6,29.96,East,94,4.0,4.0,73,0.00,,,-99.99,Weather View 32 v60,2013-01-23 04:57:00,
2013-01-22 21:00:00,45.9,38.8,29.97,ENE,57,1.0,4.0,76,0.00,,,-99.99,Weather View 32 v60,2013-01-23 05:00:00,
2013-01-22 21:05:00,45.9,39.1,29.97,ENE,67,1.0,4.0,77,0.00,,,-99.99,Weather View 32 v60,2013-01-23 05:05:00,
2013-01-22 21:10:00,45.8,39.0,29.97,ENE,66,0.0,4.0,77,0.00,,,-99.99,Weather View 32 v60,2013-01-23 05:10:00,
2013-01-22 21:15:00,45.6,38.8,29.97,NNE,29,0.0,4.0,77,0.00,,,-99.99,Weather View 32 v60,2013-01-23 05:15:00,
2013-01-22 21:20:00,45.6,38.8,29.98,WNW,292,2.0,4.0,77,0.00,,,-99.99,Weather View 32 v60,2013-01-23 05:20:00,
2013-01-22 21:25:00,45.5,39.0,29.97,North,358,1.0,4.0,78,0.00,,,-99.99,Weather View 32 v60,2013-01-23 05:25:00,
2013-01-22 21:30:00,45.5,39.0,29.98,North,357,1.0,4.0,78,0.00,,,-99.99,Weather View 32 v60,2013-01-23 05:30:00,
2013-01-22 21:35:00,45.4,38.9,29.97,North,350,1.0,4.0,78,0.00,,,-99.99,Weather View 32 v60,2013-01-23 05:35:00,
2013-01-22 21:40:00,45.4,38.9,29.97,NNW,328,1.0,4.0,78,0.00,,,-99.99,Weather View 32 v60,2013-01-23 05:40:00,
2013-01-22 21:45:00,45.4,38.9,29.97,North,4,2.0,4.0,78,0.00,,,-99.99,Weather View 32 v60,2013-01-23 05:45:00,
2013-01-22 21:50:00,45.5,39.0,29.97,North,357,2.0,4.0,78,0.00,,,-99.99,Weather View 32 v60,2013-01-23 05:50:00,
2013-01-22 21:55:00,45.6,39.1,29.97,NNE,19,2.0,4.0,78,0.00,,,-99.99,Weather View 32 v60,2013-01-23 05:55:00,
2013-01-22 22:00:00,45.7,39.2,29.97,North,358,1.0,3.0,78,0.00,,,-99.99,Weather View 32 v60,2013-01-23 06:00:00,
2013-01-22 22:05:00,45.7,39.2,29.97,NNE,28,1.0,3.0,78,0.00,,,-99.99,Weather View 32 v60,2013-01-23 06:05:00,
2013-01-22 22:10:00,45.6,39.1,29.97,NE,49,0.0,3.0,78,0.00,,,-99.99,Weather View 32 v60,2013-01-23 06:10:00,
2013-01-22 22:15:00,45.6,39.1,29.97,NE,47,0.0,3.0,78,0.00,,,-99.99,Weather View 32 v60,2013-01-23 06:15:00,
2013-01-22 22:20:00,45.7,39.2,29.98,WSW,258,1.0,3.0,78,0.00,,,-99.99,Weather View 32 v60,2013-01-23 06:20:00,
2013-01-22 22:25:00,45.8,39.3,29.97,West,259,1.0,3.0,78,0.00,,,-99.99,Weather View 32 v60,2013-01-23 06:25:00,
2013-01-22 22:30:00,45.8,39.3,29.98,West,259,1.0,3.0,78,0.00,,,-99.99,Weather View 32 v60,2013-01-23 06:30:00,
2013-01-22 22:35:00,45.7,39.2,29.97,West,259,1.0,3.0,78,0.00,,,-99.99,Weather View 32 v60,2013-01-23 06:35:00,
2013-01-22 22:40:00,45.7,39.2,29.98,NNE,22,0.0,3.0,78,0.00,,,-99.99,Weather View 32 v60,2013-01-23 06:40:00,
2013-01-22 22:45:00,45.7,39.2,29.97,NNE,22,1.0,3.0,78,0.00,,,-99.99,Weather View 32 v60,2013-01-23 06:45:00,
2013-01-22 22:50:00,45.8,39.3,29.97,NNE,23,1.0,3.0,78,0.00,,,-99.99,Weather View 32 v60,2013-01-23 06:50:00,
2013-01-22 22:55:00,45.8,39.3,29.98,ESE,109,2.0,3.0,78,0.00,,,-99.99,Weather View 32 v60,2013-01-23 06:55:00,
2013-01-22 23:00:00,45.6,38.8,29.97,East,88,3.0,3.0,77,0.00,,,-99.99,Weather View 32 v60,2013-01-23 07:00:00,
2013-01-22 23:05:00,45.5,39.0,29.97,NE,47,1.0,3.0,78,0.00,,,-99.99,Weather View 32 v60,2013-01-23 07:05:00,
2013-01-22 23:10:00,45.4,38.9,29.97,NE,47,0.0,3.0,78,0.00,,,-99.99,Weather View 32 v60,2013-01-23 07:10:00,
2013-01-22 23:15:00,45.4,38.9,29.97,NE,36,1.0,3.0,78,0.00,,,-99.99,Weather View 32 v60,2013-01-23 07:15:00,
2013-01-22 23:20:00,45.3,38.8,29.97,NE,35,0.0,3.0,78,0.00,,,-99.99,Weather View 32 v60,2013-01-23 07:20:00,
2013-01-22 23:25:00,45.4,38.9,29.97,NNE,25,1.0,3.0,78,0.00,,,-99.99,Weather View 32 v60,2013-01-23 07:25:00,
2013-01-22 23:30:00,45.5,39.4,29.97,NW,324,1.0,3.0,79,0.00,,,-99.99,Weather View 32 v60,2013-01-23 07:30:00,
2013-01-22 23:35:00,45.6,39.5,29.97,NNW,339,1.0,3.0,79,0.00,,,-99.99,Weather View 32 v60,2013-01-23 07:35:00,
2013-01-22 23:40:00,45.7,39.6,29.97,NNE,27,2.0,3.0,79,0.00,,,-99.99,Weather View 32 v60,2013-01-23 07:40:00,
2013-01-22 23:45:00,45.7,39.6,29.97,NNW,339,1.0,3.0,79,0.00,,,-99.99,Weather View 32 v60,2013-01-23 07:45:00,
2013-01-22 23:50:00,45.7,39.6,29.97,North,7,1.0,3.0,79,0.00,,,-99.99,Weather View 32 v60,2013-01-23 07:50:00,
2013-01-22 23:55:00,45.8,39.6,29.96,North,358,1.0,3.0,79,0.00,,,-99.99,Weather View 32 v60,2013-01-23 07:55:00,